createdAt,value
2022-11-15T00:00:49.303Z,9.15
2022-11-15T00:03:21.276Z,9.15
2022-11-15T00:05:48.339Z,9.06
2022-11-15T00:08:15.003Z,9.04
2022-11-15T00:10:42.015Z,9.05
2022-11-15T00:13:10.476Z,9.02
2022-11-15T00:15:37.602Z,8.96
2022-11-15T00:18:05.169Z,8.91
2022-11-15T00:20:32.383Z,8.94
2022-11-15T00:22:58.783Z,8.91
2022-11-15T00:25:25.251Z,8.84
2022-11-15T00:27:52.696Z,8.87
2022-11-15T00:30:19.075Z,8.85
2022-11-15T00:32:45.496Z,8.87
2022-11-15T00:35:11.909Z,8.84
2022-11-15T00:37:38.272Z,8.81
2022-11-15T00:40:05.152Z,8.78
2022-11-15T00:42:31.567Z,8.74
2022-11-15T00:44:58.075Z,8.74
2022-11-15T00:47:24.458Z,8.68
2022-11-15T00:49:50.859Z,8.67
2022-11-15T00:52:17.237Z,8.63
2022-11-15T00:54:43.684Z,8.66
2022-11-15T00:57:10.210Z,8.65
2022-11-15T00:59:36.687Z,8.67
2022-11-15T01:02:03.164Z,8.64
2022-11-15T01:04:29.591Z,8.67
2022-11-15T01:06:56.126Z,8.59
2022-11-15T01:09:22.837Z,8.56
2022-11-15T01:11:49.255Z,8.55
2022-11-15T01:14:15.663Z,8.55
2022-11-15T01:16:43.304Z,8.55
2022-11-15T01:19:09.690Z,8.51
2022-11-15T01:21:36.078Z,8.52
2022-11-15T01:24:02.536Z,8.51
2022-11-15T01:26:28.955Z,8.52
2022-11-15T01:28:55.375Z,8.49
2022-11-15T01:31:22.336Z,8.53
2022-11-15T01:33:49.527Z,8.50
2022-11-15T01:36:18.885Z,8.48
2022-11-15T01:38:45.541Z,8.51
2022-11-15T01:41:22.121Z,8.46
2022-11-15T01:44:18.403Z,8.47
2022-11-15T01:46:48.384Z,8.48
2022-11-15T01:49:21.823Z,8.49
2022-11-15T01:51:48.471Z,8.47
2022-11-15T01:54:18.104Z,8.38
2022-11-15T01:56:54.127Z,8.36
2022-11-15T01:59:20.937Z,8.43
2022-11-15T02:01:47.956Z,8.40
2022-11-15T02:04:17.892Z,8.42
2022-11-15T02:06:45.306Z,8.46
2022-11-15T02:09:12.634Z,8.48
2022-11-15T02:11:39.203Z,8.47
2022-11-15T02:14:07.051Z,8.46
2022-11-15T02:17:20.224Z,8.46
2022-11-15T02:20:05.478Z,8.43
2022-11-15T02:23:04.286Z,8.43
2022-11-15T02:25:36.724Z,8.43
2022-11-15T02:28:26.480Z,8.38
2022-11-15T02:31:11.806Z,8.38
2022-11-15T02:33:50.290Z,8.33
2022-11-15T02:36:29.790Z,8.32
2022-11-15T02:39:24.311Z,8.27
2022-11-15T02:41:58.431Z,8.33
2022-11-15T02:44:33.654Z,8.34
2022-11-15T02:47:14.211Z,8.35
2022-11-15T02:49:44.663Z,8.32
2022-11-15T02:52:16.626Z,8.32
2022-11-15T02:54:43.013Z,8.32
2022-11-15T02:57:17.583Z,8.29
2022-11-15T03:00:04.920Z,8.32
2022-11-15T03:02:40.095Z,8.29
2022-11-15T03:05:24.837Z,8.30
2022-11-15T03:08:02.465Z,8.26
2022-11-15T03:10:41.394Z,8.23
2022-11-15T03:13:22.534Z,8.19
2022-11-15T03:16:02.040Z,8.18
2022-11-15T03:18:45.294Z,8.11
2022-11-15T03:21:14.183Z,8.09
2022-11-15T03:23:40.957Z,8.11
2022-11-15T03:26:12.632Z,8.09
2022-11-15T03:28:48.283Z,8.02
2022-11-15T03:31:36.285Z,7.97
2022-11-15T03:34:06.896Z,8.03
2022-11-15T03:36:34.519Z,7.98
2022-11-15T03:39:06.290Z,7.95
2022-11-15T03:41:42.700Z,7.92
2022-11-15T03:44:28.051Z,7.87
2022-11-15T03:47:24.551Z,7.89
2022-11-15T03:50:00.293Z,7.86
2022-11-15T03:52:26.827Z,7.84
2022-11-15T03:54:58.142Z,7.80
2022-11-15T03:57:24.793Z,7.78
2022-11-15T03:59:51.247Z,7.75
2022-11-15T04:02:17.702Z,7.69
2022-11-15T04:04:44.182Z,7.73
2022-11-15T04:07:10.931Z,7.73
2022-11-15T04:09:57.855Z,7.73
2022-11-15T04:12:31.746Z,7.76
2022-11-15T04:15:09.463Z,7.79
2022-11-15T04:17:44.641Z,7.87
2022-11-15T04:20:34.568Z,7.86
2022-11-15T04:23:21.366Z,7.84
2022-11-15T04:25:51.104Z,7.81
2022-11-15T04:28:17.752Z,7.83
2022-11-15T04:30:44.234Z,7.88
2022-11-15T04:33:10.632Z,7.85
2022-11-15T04:35:37.168Z,7.83
2022-11-15T04:38:05.379Z,7.82
2022-11-15T04:40:31.889Z,7.82
2022-11-15T04:43:03.570Z,7.78
2022-11-15T04:45:30.963Z,7.81
2022-11-15T04:47:57.450Z,7.80
2022-11-15T04:50:23.868Z,7.83
2022-11-15T04:52:55.072Z,7.84
2022-11-15T04:55:21.547Z,7.87
2022-11-15T04:57:47.993Z,7.86
2022-11-15T05:00:17.098Z,7.88
2022-11-15T05:03:01.894Z,7.87
2022-11-15T05:05:28.437Z,7.87
2022-11-15T05:07:54.840Z,7.92
2022-11-15T05:10:21.392Z,7.91
2022-11-15T05:12:47.791Z,7.86
2022-11-15T05:15:14.217Z,7.86
2022-11-15T05:17:40.658Z,7.90
2022-11-15T05:20:07.682Z,7.89
2022-11-15T05:22:34.090Z,7.87
2022-11-15T05:25:00.575Z,7.89
2022-11-15T05:27:27.041Z,7.89
2022-11-15T05:29:53.493Z,7.93
2022-11-15T05:32:19.910Z,7.88
2022-11-15T05:34:47.390Z,7.91
2022-11-15T05:37:14.858Z,7.94
2022-11-15T05:39:41.294Z,7.95
2022-11-15T05:42:13.648Z,7.96
2022-11-15T05:44:44.653Z,7.97
2022-11-15T05:47:15.287Z,7.93
2022-11-15T05:49:45.462Z,7.94
2022-11-15T05:52:15.616Z,7.87
2022-11-15T05:54:42.408Z,7.90
2022-11-15T05:57:08.943Z,7.80
2022-11-15T05:59:36.111Z,7.82
2022-11-15T06:02:02.636Z,7.82
2022-11-15T06:04:29.217Z,7.76
2022-11-15T06:06:55.725Z,7.69
2022-11-15T06:09:22.131Z,7.65
2022-11-15T06:11:49.070Z,7.71
2022-11-15T06:14:15.544Z,7.70
2022-11-15T06:16:42.049Z,7.71
2022-11-15T06:19:08.809Z,7.78
2022-11-15T06:21:35.278Z,7.87
2022-11-15T06:24:02.228Z,7.91
2022-11-15T06:26:28.629Z,7.91
2022-11-15T06:28:55.035Z,7.91
2022-11-15T06:31:21.452Z,7.94
2022-11-15T06:33:48.126Z,8.01
2022-11-15T06:36:17.764Z,8.05
2022-11-15T06:38:45.458Z,8.09
2022-11-15T06:41:13.263Z,8.07
2022-11-15T06:43:40.815Z,8.12
2022-11-15T06:46:07.876Z,8.06
2022-11-15T06:48:35.255Z,8.13
2022-11-15T06:51:03.468Z,8.13
2022-11-15T06:53:30.968Z,8.07
2022-11-15T06:56:08.065Z,8.06
2022-11-15T06:58:34.680Z,8.06
2022-11-15T07:01:03.726Z,8.10
2022-11-15T07:03:30.842Z,8.18
2022-11-15T07:06:02.722Z,8.24
2022-11-15T07:08:33.194Z,8.27
2022-11-15T07:11:02.635Z,8.31
2022-11-15T07:13:31.521Z,8.33
2022-11-15T07:15:58.105Z,8.46
2022-11-15T07:18:24.859Z,8.72
2022-11-15T07:20:51.269Z,8.98
2022-11-15T07:23:17.692Z,9.33
2022-11-15T07:25:44.287Z,9.60
2022-11-15T07:28:11.115Z,9.78
2022-11-15T07:30:41.275Z,10.06
2022-11-15T07:33:11.405Z,10.25
2022-11-15T07:35:37.905Z,10.29
2022-11-15T07:38:04.674Z,10.45
2022-11-15T07:40:32.891Z,10.60
2022-11-15T07:43:03.972Z,10.74
2022-11-15T07:45:30.662Z,10.90
2022-11-15T07:47:57.616Z,11.10
2022-11-15T07:50:25.110Z,11.26
2022-11-15T07:52:56.306Z,11.28
2022-11-15T07:55:24.015Z,11.53
2022-11-15T07:57:50.690Z,11.59
2022-11-15T08:00:17.594Z,11.72
2022-11-15T08:02:44.101Z,11.85
2022-11-15T08:05:10.713Z,11.68
2022-11-15T08:07:38.971Z,11.89
2022-11-15T08:10:06.934Z,11.98
2022-11-15T08:12:33.400Z,12.15
2022-11-15T08:14:59.844Z,12.13
2022-11-15T08:17:26.325Z,12.28
2022-11-15T08:19:52.832Z,12.49
2022-11-15T08:22:19.624Z,12.42
2022-11-15T08:24:46.037Z,12.49
2022-11-15T08:27:18.596Z,12.36
2022-11-15T08:29:45.997Z,12.49
2022-11-15T08:32:12.827Z,12.62
2022-11-15T08:34:39.496Z,12.65
2022-11-15T08:37:06.110Z,12.57
2022-11-15T08:39:33.045Z,12.81
2022-11-15T08:42:00.230Z,12.87
2022-11-15T08:44:26.847Z,12.95
2022-11-15T08:46:53.333Z,13.22
2022-11-15T08:49:19.733Z,13.35
2022-11-15T08:51:46.157Z,13.51
2022-11-15T08:54:12.561Z,13.70
2022-11-15T08:56:39.034Z,13.88
2022-11-15T08:59:05.441Z,13.93
2022-11-15T09:01:33.411Z,14.15
2022-11-15T09:03:59.883Z,14.16
2022-11-15T09:06:26.326Z,14.04
2022-11-15T09:08:52.876Z,13.99
2022-11-15T09:11:21.339Z,13.90
2022-11-15T09:13:47.876Z,13.85
2022-11-15T09:16:16.142Z,13.78
2022-11-15T09:18:42.521Z,13.52
2022-11-15T09:21:10.055Z,13.28
2022-11-15T09:23:36.834Z,13.33
2022-11-15T09:26:05.619Z,13.34
2022-11-15T09:28:33.955Z,13.30
2022-11-15T09:31:02.905Z,13.36
2022-11-15T09:33:30.122Z,13.43
2022-11-15T09:36:05.846Z,13.36
2022-11-15T09:38:33.192Z,13.26
2022-11-15T09:41:39.598Z,13.22
2022-11-15T09:44:28.812Z,13.20
2022-11-15T09:47:26.303Z,13.03
2022-11-15T09:49:59.533Z,13.13
2022-11-15T09:52:26.242Z,13.08
2022-11-15T09:54:55.512Z,13.02
2022-11-15T09:57:33.428Z,13.03
2022-11-15T10:00:47.672Z,13.15
2022-11-15T10:03:20.132Z,13.13
2022-11-15T10:05:48.647Z,13.17
2022-11-15T10:08:29.792Z,13.24
2022-11-15T10:11:30.125Z,13.29
2022-11-15T10:13:51.474Z,13.49
2022-11-15T10:16:36.442Z,13.48
2022-11-15T10:19:41.565Z,13.43
2022-11-15T10:22:51.730Z,13.48
2022-11-15T10:25:20.827Z,13.55
2022-11-15T10:27:55.662Z,13.61
2022-11-15T10:30:23.105Z,13.73
2022-11-15T10:32:50.527Z,13.74
2022-11-15T10:35:43.632Z,13.82
2022-11-15T10:38:12.347Z,13.75
2022-11-15T10:40:41.057Z,13.90
2022-11-15T10:43:10.593Z,13.92
2022-11-15T10:45:38.280Z,13.93
2022-11-15T10:48:13.898Z,13.92
2022-11-15T10:50:51.005Z,13.95
2022-11-15T10:53:40.635Z,14.03
2022-11-15T10:56:12.749Z,14.03
2022-11-15T10:58:52.486Z,14.08
2022-11-15T11:01:22.929Z,14.03
2022-11-15T11:04:22.165Z,14.12
2022-11-15T11:06:49.406Z,14.12
2022-11-15T11:09:36.515Z,14.21
2022-11-15T11:12:05.467Z,14.19
2022-11-15T11:14:34.915Z,14.18
2022-11-15T11:17:22.823Z,14.12
2022-11-15T11:20:01.519Z,14.22
2022-11-15T11:22:41.436Z,14.27
2022-11-15T11:25:33.218Z,14.31
2022-11-15T11:28:08.729Z,14.27
2022-11-15T11:30:58.224Z,14.29
2022-11-15T11:33:37.085Z,14.37
2022-11-15T11:36:20.408Z,14.31
2022-11-15T11:39:11.924Z,14.30
2022-11-15T11:41:44.466Z,14.43
2022-11-15T11:44:34.627Z,14.38
2022-11-15T11:47:02.772Z,14.44
2022-11-15T11:49:35.779Z,14.50
2022-11-15T11:52:31.024Z,14.52
2022-11-15T11:55:03.494Z,14.58
2022-11-15T11:57:37.275Z,14.60
2022-11-15T12:00:16.758Z,14.64
2022-11-15T12:02:50.774Z,14.66
2022-11-15T12:05:57.549Z,14.68
2022-11-15T12:08:31.848Z,14.68
2022-11-15T12:11:24.830Z,14.72
2022-11-15T12:13:57.876Z,14.73
2022-11-15T12:16:30.242Z,14.73
2022-11-15T12:19:03.370Z,14.80
2022-11-15T12:21:40.649Z,14.86
2022-11-15T12:24:38.219Z,14.93
2022-11-15T12:27:20.554Z,14.91
2022-11-15T12:29:53.842Z,14.90
2022-11-15T12:32:37.014Z,14.86
2022-11-15T12:35:07.397Z,14.91
2022-11-15T12:37:36.890Z,14.94
2022-11-15T12:40:22.323Z,14.93
2022-11-15T12:43:13.847Z,14.93
2022-11-15T12:45:43.355Z,15.02
2022-11-15T12:48:36.273Z,15.08
2022-11-15T12:51:02.946Z,15.13
2022-11-15T12:53:34.474Z,15.15
2022-11-15T12:56:03.936Z,14.99
2022-11-15T12:58:51.292Z,14.95
2022-11-15T13:01:39.002Z,14.99
2022-11-15T13:04:29.895Z,14.99
2022-11-15T13:07:01.173Z,14.89
2022-11-15T13:09:30.726Z,14.84
2022-11-15T13:11:59.425Z,14.80
2022-11-15T13:14:38.045Z,14.71
2022-11-15T13:17:20.003Z,14.85
2022-11-15T13:19:56.370Z,14.74
2022-11-15T13:22:41.324Z,14.76
2022-11-15T13:25:21.413Z,14.62
2022-11-15T13:27:50.175Z,14.59
2022-11-15T13:30:26.191Z,14.55
2022-11-15T13:32:53.744Z,14.46
2022-11-15T13:35:32.534Z,14.41
2022-11-15T13:38:04.827Z,14.28
2022-11-15T13:40:37.076Z,14.20
2022-11-15T13:43:36.482Z,14.11
2022-11-15T13:46:23.944Z,13.98
2022-11-15T13:49:01.049Z,14.07
2022-11-15T13:51:31.072Z,13.99
2022-11-15T13:54:03.587Z,13.92
2022-11-15T13:56:33.090Z,13.89
2022-11-15T13:58:59.599Z,13.78
2022-11-15T14:01:29.863Z,13.63
2022-11-15T14:04:01.495Z,13.57
2022-11-15T14:06:30.705Z,13.60
2022-11-15T14:09:12.095Z,13.55
2022-11-15T14:11:54.214Z,13.57
2022-11-15T14:14:23.896Z,13.60
2022-11-15T14:16:53.594Z,13.59
2022-11-15T14:19:26.011Z,13.55
2022-11-15T14:22:22.851Z,13.47
2022-11-15T14:25:18.710Z,13.42
2022-11-15T14:28:05.886Z,13.29
2022-11-15T14:30:32.369Z,13.22
2022-11-15T14:32:58.890Z,13.12
2022-11-15T14:35:25.540Z,13.06
2022-11-15T14:37:52.032Z,12.98
2022-11-15T14:40:21.533Z,12.91
2022-11-15T14:42:49.708Z,12.81
2022-11-15T14:45:21.485Z,12.69
2022-11-15T14:47:48.840Z,12.60
2022-11-15T14:50:18.279Z,12.51
2022-11-15T14:52:45.876Z,12.45
2022-11-15T14:55:19.235Z,12.35
2022-11-15T14:57:46.423Z,12.18
2022-11-15T15:00:13.908Z,12.07
2022-11-15T15:02:42.653Z,11.99
2022-11-15T15:05:33.369Z,11.97
2022-11-15T15:08:00.292Z,11.87
2022-11-15T15:10:40.971Z,11.74
2022-11-15T15:13:17.878Z,11.54
2022-11-15T15:15:44.813Z,11.35
2022-11-15T15:18:12.278Z,11.27
2022-11-15T15:20:40.939Z,11.15
2022-11-15T15:23:16.706Z,11.05
2022-11-15T15:25:44.534Z,10.90
2022-11-15T15:28:10.985Z,10.85
2022-11-15T15:30:37.471Z,10.70
2022-11-15T15:33:04.080Z,10.62
2022-11-15T15:35:33.870Z,10.57
2022-11-15T15:38:00.805Z,10.43
2022-11-15T15:40:30.446Z,10.35
2022-11-15T15:42:56.927Z,10.25
2022-11-15T15:45:23.390Z,10.19
2022-11-15T15:47:51.050Z,10.05
2022-11-15T15:50:34.526Z,9.90
2022-11-15T15:53:02.612Z,9.81
2022-11-15T15:55:29.684Z,9.78
2022-11-15T15:57:56.502Z,9.72
2022-11-15T16:00:25.621Z,9.67
2022-11-15T16:02:53.306Z,9.62
2022-11-15T16:05:19.966Z,9.56
2022-11-15T16:07:48.283Z,9.54
2022-11-15T16:10:26.841Z,9.42
2022-11-15T16:12:54.409Z,9.38
2022-11-15T16:15:22.368Z,9.39
2022-11-15T16:17:52.055Z,9.34
2022-11-15T16:20:40.394Z,9.30
2022-11-15T16:23:10.226Z,9.31
2022-11-15T16:25:54.072Z,9.28
2022-11-15T16:28:22.033Z,9.28
2022-11-15T16:30:53.871Z,9.31
2022-11-15T16:33:23.281Z,9.32
2022-11-15T16:35:49.699Z,9.31
2022-11-15T16:38:17.145Z,9.32
2022-11-15T16:40:43.799Z,9.36
2022-11-15T16:43:11.035Z,9.40
2022-11-15T16:45:37.850Z,9.43
2022-11-15T16:48:05.001Z,9.49
2022-11-15T16:50:40.624Z,9.51
2022-11-15T16:53:07.347Z,9.51
2022-11-15T16:55:33.815Z,9.54
2022-11-15T16:58:01.781Z,9.60
2022-11-15T17:00:31.153Z,9.62
2022-11-15T17:02:57.892Z,9.68
2022-11-15T17:05:27.161Z,9.72
2022-11-15T17:07:56.324Z,9.76
2022-11-15T17:10:24.488Z,9.82
2022-11-15T17:12:51.715Z,9.83
2022-11-15T17:15:19.126Z,9.87
2022-11-15T17:17:52.883Z,9.89
2022-11-15T17:20:21.362Z,9.93
2022-11-15T17:22:50.524Z,10.02
2022-11-15T17:25:16.970Z,10.13
2022-11-15T17:27:43.669Z,10.21
2022-11-15T17:30:12.872Z,10.31
2022-11-15T17:32:39.307Z,10.45
2022-11-15T17:35:14.908Z,10.53
2022-11-15T17:37:44.233Z,10.56
2022-11-15T17:40:11.446Z,10.64
2022-11-15T17:42:40.790Z,10.70
2022-11-15T17:45:10.136Z,10.81
2022-11-15T17:47:37.223Z,10.83
2022-11-15T17:50:03.969Z,10.84
2022-11-15T17:52:30.657Z,10.84
2022-11-15T17:54:57.068Z,10.88
2022-11-15T17:57:23.492Z,10.93
2022-11-15T17:59:49.938Z,10.96
2022-11-15T18:02:16.457Z,10.98
2022-11-15T18:04:42.863Z,10.98
2022-11-15T18:07:11.658Z,10.99
2022-11-15T18:09:42.318Z,11.02
2022-11-15T18:12:09.155Z,11.00
2022-11-15T18:14:35.782Z,11.00
2022-11-15T18:17:02.177Z,10.98
2022-11-15T18:19:28.567Z,10.99
2022-11-15T18:21:58.884Z,10.96
2022-11-15T18:24:28.412Z,10.95
2022-11-15T18:26:56.935Z,10.96
2022-11-15T18:29:24.597Z,10.94
2022-11-15T18:31:54.979Z,11.01
2022-11-15T18:34:33.361Z,10.94
2022-11-15T18:37:01.332Z,10.89
2022-11-15T18:39:30.269Z,10.84
2022-11-15T18:41:57.920Z,10.73
2022-11-15T18:44:24.365Z,10.74
2022-11-15T18:46:51.050Z,10.65
2022-11-15T18:49:19.586Z,10.60
2022-11-15T18:51:46.082Z,10.60
2022-11-15T18:54:14.676Z,10.60
2022-11-15T18:56:44.531Z,10.62
2022-11-15T18:59:11.525Z,10.58
2022-11-15T19:01:39.961Z,10.55
2022-11-15T19:04:18.588Z,10.66
2022-11-15T19:06:49.394Z,10.69
2022-11-15T19:09:17.956Z,10.75
2022-11-15T19:11:45.350Z,10.76
2022-11-15T19:14:14.546Z,10.78
2022-11-15T19:16:46.104Z,10.78
2022-11-15T19:19:17.787Z,10.80
2022-11-15T19:21:44.598Z,10.79
2022-11-15T19:24:11.028Z,10.81
2022-11-15T19:26:38.378Z,10.80
2022-11-15T19:29:06.416Z,10.79
2022-11-15T19:31:33.277Z,10.77
2022-11-15T19:34:01.533Z,10.85
2022-11-15T19:36:33.302Z,10.89
2022-11-15T19:39:05.122Z,10.87
2022-11-15T19:41:32.162Z,10.89
2022-11-15T19:43:58.580Z,10.88
2022-11-15T19:46:26.851Z,10.89
2022-11-15T19:48:54.004Z,10.89
2022-11-15T19:51:25.964Z,10.82
2022-11-15T19:53:54.064Z,10.84
2022-11-15T19:56:21.720Z,10.79
2022-11-15T19:58:53.882Z,10.78
2022-11-15T20:01:24.058Z,10.74
2022-11-15T20:03:53.946Z,10.72
2022-11-15T20:06:24.378Z,10.62
2022-11-15T20:08:51.352Z,10.55
2022-11-15T20:11:18.761Z,10.42
2022-11-15T20:13:45.862Z,10.37
2022-11-15T20:16:20.983Z,10.29
2022-11-15T20:18:48.761Z,10.26
2022-11-15T20:21:15.287Z,10.18
2022-11-15T20:23:42.517Z,10.22
2022-11-15T20:26:10.458Z,10.23
2022-11-15T20:28:38.948Z,10.20
2022-11-15T20:31:05.979Z,10.16
2022-11-15T20:33:32.448Z,10.16
2022-11-15T20:36:03.214Z,10.15
2022-11-15T20:38:29.710Z,10.16
2022-11-15T20:41:00.135Z,10.15
2022-11-15T20:43:27.113Z,10.18
2022-11-15T20:45:53.815Z,10.13
2022-11-15T20:48:20.249Z,10.11
2022-11-15T20:50:48.739Z,10.07
2022-11-15T20:53:16.628Z,10.08
2022-11-15T20:55:47.583Z,10.06
2022-11-15T20:58:15.217Z,10.05
2022-11-15T21:00:43.175Z,9.98
2022-11-15T21:03:09.753Z,9.98
2022-11-15T21:05:41.080Z,9.96
2022-11-15T21:08:08.190Z,9.97
2022-11-15T21:10:53.234Z,9.95
2022-11-15T21:13:27.154Z,9.92
2022-11-15T21:15:59.137Z,9.85
2022-11-15T21:18:25.592Z,9.89
2022-11-15T21:20:58.027Z,9.89
2022-11-15T21:23:24.421Z,9.83
2022-11-15T21:25:55.365Z,9.85
2022-11-15T21:28:21.730Z,9.82
2022-11-15T21:30:59.532Z,9.75
2022-11-15T21:33:29.618Z,9.67
2022-11-15T21:35:57.388Z,9.66
2022-11-15T21:38:24.729Z,9.61
2022-11-15T21:40:52.508Z,9.60
2022-11-15T21:43:20.116Z,9.63
2022-11-15T21:46:01.122Z,9.55
2022-11-15T21:48:32.670Z,9.57
2022-11-15T21:51:00.564Z,9.52
2022-11-15T21:53:27.993Z,9.52
2022-11-15T21:55:54.990Z,9.57
2022-11-15T21:58:22.392Z,9.56
2022-11-15T22:01:07.839Z,9.49
2022-11-15T22:03:34.939Z,9.36
2022-11-15T22:06:01.750Z,9.36
2022-11-15T22:08:28.147Z,9.30
2022-11-15T22:10:56.664Z,9.23
2022-11-15T22:13:24.366Z,9.22
2022-11-15T22:15:54.087Z,9.14
2022-11-15T22:18:26.617Z,9.10
2022-11-15T22:20:59.037Z,9.00
2022-11-15T22:23:27.751Z,8.95
2022-11-15T22:25:57.101Z,8.92
2022-11-15T22:28:24.224Z,8.82
2022-11-15T22:30:55.599Z,8.71
2022-11-15T22:33:24.359Z,8.72
2022-11-15T22:35:51.206Z,8.68
2022-11-15T22:38:18.222Z,8.58
2022-11-15T22:40:47.337Z,8.51
2022-11-15T22:43:18.927Z,8.50
2022-11-15T22:45:52.524Z,8.41
2022-11-15T22:48:20.781Z,8.38
2022-11-15T22:50:47.434Z,8.36
2022-11-15T22:53:14.015Z,8.40
2022-11-15T22:55:41.405Z,8.44
2022-11-15T22:58:10.954Z,8.40
2022-11-15T23:00:37.469Z,8.37
2022-11-15T23:03:04.280Z,8.30
2022-11-15T23:05:31.971Z,8.24
2022-11-15T23:08:00.871Z,8.16
2022-11-15T23:10:45.953Z,8.10
2022-11-15T23:13:16.486Z,8.08
2022-11-15T23:16:08.731Z,8.13
2022-11-15T23:18:37.339Z,8.09
2022-11-15T23:21:11.421Z,8.09
2022-11-15T23:23:38.711Z,8.03
2022-11-15T23:26:05.582Z,7.99
2022-11-15T23:28:33.567Z,8.02
2022-11-15T23:31:26.446Z,8.07
2022-11-15T23:33:59.084Z,8.07
2022-11-15T23:36:26.799Z,8.04
2022-11-15T23:38:56.574Z,7.96
2022-11-15T23:41:23.979Z,8.02
2022-11-15T23:43:51.517Z,8.00
2022-11-15T23:46:18.089Z,7.95
2022-11-15T23:48:44.513Z,7.90
2022-11-15T23:51:11.242Z,7.85
2022-11-15T23:53:37.825Z,7.82
2022-11-15T23:56:11.847Z,7.82
2022-11-15T23:58:41.181Z,7.79
